Terminal Aerodrome Forecast
Issued by NWS Pueblo, CO

Home | Current Version | Previous Version | Text Only | Print | Product List | Glossary On
Versions: 1 2 3 4 5 6 7 8 9 10 11 12 13 14 15 16 17 18 19 20 21 22 23 24 25 26
000
FTUS45 KPUB 211127
TAFPUB
TAF
KPUB 211127Z 2112/2212 VRB05KT P6SM SCT020
     FM211600 VRB06KT P6SM BKN200
     FM211800 28012KT P6SM SCT110 BKN150
     FM220200 32008KT P6SM SCT110 BKN150=

USA.gov is the U.S. government's official web portal to all federal, state and local government web resources and services.